sensor_id;sensor_type;location;lat;lon;timestamp;temperature;humidity
9723;DHT22;4900;49.306;8.500;2023-09-07T00:00:41;19.65;68.14
9723;DHT22;4900;49.306;8.500;2023-09-07T00:03:07;19.62;68.24
9723;DHT22;4900;49.306;8.500;2023-09-07T00:05:33;19.62;68.24
9723;DHT22;4900;49.306;8.500;2023-09-07T00:07:58;19.59;68.38
9723;DHT22;4900;49.306;8.500;2023-09-07T00:10:24;19.55;68.44
9723;DHT22;4900;49.306;8.500;2023-09-07T00:12:51;19.53;68.59
9723;DHT22;4900;49.306;8.500;2023-09-07T00:15:16;19.50;68.66
9723;DHT22;4900;49.306;8.500;2023-09-07T00:17:44;19.47;68.82
9723;DHT22;4900;49.306;8.500;2023-09-07T00:20:10;19.43;69.02
9723;DHT22;4900;49.306;8.500;2023-09-07T00:22:36;19.46;69.18
9723;DHT22;4900;49.306;8.500;2023-09-07T00:25:02;19.40;69.12
9723;DHT22;4900;49.306;8.500;2023-09-07T00:27:29;19.41;69.22
9723;DHT22;4900;49.306;8.500;2023-09-07T00:29:58;19.40;69.27
9723;DHT22;4900;49.306;8.500;2023-09-07T00:32:23;19.39;69.22
9723;DHT22;4900;49.306;8.500;2023-09-07T00:34:48;19.40;69.11
9723;DHT22;4900;49.306;8.500;2023-09-07T00:37:14;19.36;69.28
9723;DHT22;4900;49.306;8.500;2023-09-07T00:39:39;19.34;69.36
9723;DHT22;4900;49.306;8.500;2023-09-07T00:42:05;19.34;69.33
9723;DHT22;4900;49.306;8.500;2023-09-07T00:44:30;19.33;69.32
9723;DHT22;4900;49.306;8.500;2023-09-07T00:46:58;19.31;69.32
9723;DHT22;4900;49.306;8.500;2023-09-07T00:49:24;19.31;69.27
9723;DHT22;4900;49.306;8.500;2023-09-07T00:51:51;19.31;69.26
9723;DHT22;4900;49.306;8.500;2023-09-07T00:54:16;19.27;69.19
9723;DHT22;4900;49.306;8.500;2023-09-07T00:56:42;19.20;69.22
9723;DHT22;4900;49.306;8.500;2023-09-07T00:59:08;19.16;69.37
9723;DHT22;4900;49.306;8.500;2023-09-07T01:01:35;19.18;69.47
9723;DHT22;4900;49.306;8.500;2023-09-07T01:04:01;19.13;69.62
9723;DHT22;4900;49.306;8.500;2023-09-07T01:06:52;19.14;69.84
9723;DHT22;4900;49.306;8.500;2023-09-07T01:09:24;19.09;69.58
9723;DHT22;4900;49.306;8.500;2023-09-07T01:11:50;19.06;69.48
9723;DHT22;4900;49.306;8.500;2023-09-07T01:14:17;19.03;69.47
9723;DHT22;4900;49.306;8.500;2023-09-07T01:16:43;18.99;69.46
9723;DHT22;4900;49.306;8.500;2023-09-07T01:19:09;18.96;69.57
9723;DHT22;4900;49.306;8.500;2023-09-07T01:21:39;18.98;69.77
9723;DHT22;4900;49.306;8.500;2023-09-07T01:24:06;18.93;69.76
9723;DHT22;4900;49.306;8.500;2023-09-07T01:26:32;18.92;69.71
9723;DHT22;4900;49.306;8.500;2023-09-07T01:28:57;18.91;69.59
9723;DHT22;4900;49.306;8.500;2023-09-07T01:31:23;18.92;69.46
9723;DHT22;4900;49.306;8.500;2023-09-07T01:33:48;18.88;69.32
9723;DHT22;4900;49.306;8.500;2023-09-07T01:36:14;18.85;69.27
9723;DHT22;4900;49.306;8.500;2023-09-07T01:38:39;18.81;69.24
9723;DHT22;4900;49.306;8.500;2023-09-07T01:41:04;18.76;69.25
9723;DHT22;4900;49.306;8.500;2023-09-07T01:43:30;18.75;69.30
9723;DHT22;4900;49.306;8.500;2023-09-07T01:45:55;18.72;69.33
9723;DHT22;4900;49.306;8.500;2023-09-07T01:48:20;18.68;69.31
9723;DHT22;4900;49.306;8.500;2023-09-07T01:50:46;18.68;69.33
9723;DHT22;4900;49.306;8.500;2023-09-07T01:53:11;18.64;69.33
9723;DHT22;4900;49.306;8.500;2023-09-07T01:55:37;18.60;69.46
9723;DHT22;4900;49.306;8.500;2023-09-07T01:58:02;18.61;69.50
9723;DHT22;4900;49.306;8.500;2023-09-07T02:00:28;18.57;69.43
9723;DHT22;4900;49.306;8.500;2023-09-07T02:02:53;18.54;69.44
9723;DHT22;4900;49.306;8.500;2023-09-07T02:05:19;18.50;69.54
9723;DHT22;4900;49.306;8.500;2023-09-07T02:07:44;18.48;69.56
9723;DHT22;4900;49.306;8.500;2023-09-07T02:10:10;18.46;69.57
9723;DHT22;4900;49.306;8.500;2023-09-07T02:12:35;18.44;69.62
9723;DHT22;4900;49.306;8.500;2023-09-07T02:15:03;18.43;69.58
9723;DHT22;4900;49.306;8.500;2023-09-07T02:17:29;18.40;69.63
9723;DHT22;4900;49.306;8.500;2023-09-07T02:19:55;18.37;69.77
9723;DHT22;4900;49.306;8.500;2023-09-07T02:22:20;18.33;69.91
9723;DHT22;4900;49.306;8.500;2023-09-07T02:24:46;18.31;69.96
9723;DHT22;4900;49.306;8.500;2023-09-07T02:27:11;18.30;69.88
9723;DHT22;4900;49.306;8.500;2023-09-07T02:29:36;18.29;69.94
9723;DHT22;4900;49.306;8.500;2023-09-07T02:32:02;18.23;69.97
9723;DHT22;4900;49.306;8.500;2023-09-07T02:34:28;18.22;70.17
9723;DHT22;4900;49.306;8.500;2023-09-07T02:36:53;18.22;70.34
9723;DHT22;4900;49.306;8.500;2023-09-07T02:39:19;18.20;70.34
9723;DHT22;4900;49.306;8.500;2023-09-07T02:41:45;18.22;70.50
9723;DHT22;4900;49.306;8.500;2023-09-07T02:44:11;18.19;70.66
9723;DHT22;4900;49.306;8.500;2023-09-07T02:46:36;18.20;70.84
9723;DHT22;4900;49.306;8.500;2023-09-07T02:49:02;18.17;70.88
9723;DHT22;4900;49.306;8.500;2023-09-07T02:51:28;18.14;70.93
9723;DHT22;4900;49.306;8.500;2023-09-07T02:53:54;18.13;70.91
9723;DHT22;4900;49.306;8.500;2023-09-07T02:56:19;18.12;70.86
9723;DHT22;4900;49.306;8.500;2023-09-07T02:58:44;18.09;70.88
9723;DHT22;4900;49.306;8.500;2023-09-07T03:01:11;18.09;70.71
9723;DHT22;4900;49.306;8.500;2023-09-07T03:03:37;18.05;70.72
9723;DHT22;4900;49.306;8.500;2023-09-07T03:06:13;18.02;71.12
9723;DHT22;4900;49.306;8.500;2023-09-07T03:08:41;17.99;70.73
9723;DHT22;4900;49.306;8.500;2023-09-07T03:11:07;18.01;70.83
9723;DHT22;4900;49.306;8.500;2023-09-07T03:13:33;17.98;70.75
9723;DHT22;4900;49.306;8.500;2023-09-07T03:16:00;17.96;70.83
9723;DHT22;4900;49.306;8.500;2023-09-07T03:18:26;17.94;70.80
9723;DHT22;4900;49.306;8.500;2023-09-07T03:20:54;17.89;70.76
9723;DHT22;4900;49.306;8.500;2023-09-07T03:23:20;17.89;70.80
9723;DHT22;4900;49.306;8.500;2023-09-07T03:25:47;17.89;70.74
9723;DHT22;4900;49.306;8.500;2023-09-07T03:28:13;17.88;70.83
9723;DHT22;4900;49.306;8.500;2023-09-07T03:30:38;17.84;70.95
9723;DHT22;4900;49.306;8.500;2023-09-07T03:33:05;17.82;70.93
9723;DHT22;4900;49.306;8.500;2023-09-07T03:35:31;17.79;70.99
9723;DHT22;4900;49.306;8.500;2023-09-07T03:37:56;17.77;71.05
9723;DHT22;4900;49.306;8.500;2023-09-07T03:40:22;17.78;71.11
9723;DHT22;4900;49.306;8.500;2023-09-07T03:42:47;17.73;71.28
9723;DHT22;4900;49.306;8.500;2023-09-07T03:45:13;17.75;71.23
9723;DHT22;4900;49.306;8.500;2023-09-07T03:47:38;17.73;71.35
9723;DHT22;4900;49.306;8.500;2023-09-07T03:50:04;17.74;71.35
9723;DHT22;4900;49.306;8.500;2023-09-07T03:52:30;17.74;71.35
9723;DHT22;4900;49.306;8.500;2023-09-07T03:54:56;17.73;71.28
9723;DHT22;4900;49.306;8.500;2023-09-07T03:57:23;17.70;71.48
9723;DHT22;4900;49.306;8.500;2023-09-07T03:59:48;17.68;71.50
9723;DHT22;4900;49.306;8.500;2023-09-07T04:02:14;17.68;71.45
9723;DHT22;4900;49.306;8.500;2023-09-07T04:04:40;17.67;71.54
9723;DHT22;4900;49.306;8.500;2023-09-07T04:07:05;17.68;71.71
9723;DHT22;4900;49.306;8.500;2023-09-07T04:09:31;17.66;71.84
9723;DHT22;4900;49.306;8.500;2023-09-07T04:11:57;17.68;71.82
9723;DHT22;4900;49.306;8.500;2023-09-07T04:14:22;17.71;71.85
9723;DHT22;4900;49.306;8.500;2023-09-07T04:16:47;17.70;71.77
9723;DHT22;4900;49.306;8.500;2023-09-07T04:19:13;17.68;71.62
9723;DHT22;4900;49.306;8.500;2023-09-07T04:21:39;17.70;71.57
9723;DHT22;4900;49.306;8.500;2023-09-07T04:24:05;17.66;71.45
9723;DHT22;4900;49.306;8.500;2023-09-07T04:26:30;17.61;71.43
9723;DHT22;4900;49.306;8.500;2023-09-07T04:28:56;17.58;71.52
9723;DHT22;4900;49.306;8.500;2023-09-07T04:31:21;17.57;71.68
9723;DHT22;4900;49.306;8.500;2023-09-07T04:33:47;17.55;71.58
9723;DHT22;4900;49.306;8.500;2023-09-07T04:36:14;17.53;71.77
9723;DHT22;4900;49.306;8.500;2023-09-07T04:38:40;17.51;71.87
9723;DHT22;4900;49.306;8.500;2023-09-07T04:41:10;17.50;71.89
9723;DHT22;4900;49.306;8.500;2023-09-07T04:43:36;17.51;71.74
9723;DHT22;4900;49.306;8.500;2023-09-07T04:46:03;17.53;71.67
9723;DHT22;4900;49.306;8.500;2023-09-07T04:48:28;17.47;71.44
9723;DHT22;4900;49.306;8.500;2023-09-07T04:50:58;17.44;71.54
9723;DHT22;4900;49.306;8.500;2023-09-07T04:53:24;17.43;71.52
9723;DHT22;4900;49.306;8.500;2023-09-07T04:55:49;17.41;71.40
9723;DHT22;4900;49.306;8.500;2023-09-07T04:58:15;17.40;71.63
9723;DHT22;4900;49.306;8.500;2023-09-07T05:00:40;17.39;71.61
9723;DHT22;4900;49.306;8.500;2023-09-07T05:03:05;17.40;71.58
9723;DHT22;4900;49.306;8.500;2023-09-07T05:05:31;17.40;71.66
9723;DHT22;4900;49.306;8.500;2023-09-07T05:07:56;17.39;71.67
9723;DHT22;4900;49.306;8.500;2023-09-07T05:10:21;17.41;71.71
9723;DHT22;4900;49.306;8.500;2023-09-07T05:12:47;17.40;71.75
9723;DHT22;4900;49.306;8.500;2023-09-07T05:15:12;17.40;71.91
9723;DHT22;4900;49.306;8.500;2023-09-07T05:17:38;17.41;72.05
9723;DHT22;4900;49.306;8.500;2023-09-07T05:20:03;17.40;72.09
9723;DHT22;4900;49.306;8.500;2023-09-07T05:22:29;17.43;72.21
9723;DHT22;4900;49.306;8.500;2023-09-07T05:24:55;17.43;72.47
9723;DHT22;4900;49.306;8.500;2023-09-07T05:27:20;17.47;72.59
9723;DHT22;4900;49.306;8.500;2023-09-07T05:29:45;17.51;72.63
9723;DHT22;4900;49.306;8.500;2023-09-07T05:32:11;17.55;72.62
9723;DHT22;4900;49.306;8.500;2023-09-07T05:34:36;17.58;72.68
9723;DHT22;4900;49.306;8.500;2023-09-07T05:37:01;17.63;72.69
9723;DHT22;4900;49.306;8.500;2023-09-07T05:39:27;17.66;72.76
9723;DHT22;4900;49.306;8.500;2023-09-07T05:41:52;17.68;72.86
9723;DHT22;4900;49.306;8.500;2023-09-07T05:44:18;17.74;73.14
9723;DHT22;4900;49.306;8.500;2023-09-07T05:46:43;17.81;73.19
9723;DHT22;4900;49.306;8.500;2023-09-07T05:49:08;17.85;73.49
9723;DHT22;4900;49.306;8.500;2023-09-07T05:51:34;17.89;73.85
9723;DHT22;4900;49.306;8.500;2023-09-07T05:53:59;17.95;73.94
9723;DHT22;4900;49.306;8.500;2023-09-07T05:56:25;18.02;73.86
9723;DHT22;4900;49.306;8.500;2023-09-07T05:58:50;18.10;73.82
9723;DHT22;4900;49.306;8.500;2023-09-07T06:01:15;18.16;73.96
9723;DHT22;4900;49.306;8.500;2023-09-07T06:03:41;18.22;74.17
9723;DHT22;4900;49.306;8.500;2023-09-07T06:06:06;18.23;74.30
9723;DHT22;4900;49.306;8.500;2023-09-07T06:08:32;18.29;74.21
9723;DHT22;4900;49.306;8.500;2023-09-07T06:10:57;18.39;73.97
9723;DHT22;4900;49.306;8.500;2023-09-07T06:13:22;18.44;73.97
9723;DHT22;4900;49.306;8.500;2023-09-07T06:15:48;18.50;73.84
9723;DHT22;4900;49.306;8.500;2023-09-07T06:18:13;18.56;73.78
9723;DHT22;4900;49.306;8.500;2023-09-07T06:20:39;18.61;73.82
9723;DHT22;4900;49.306;8.500;2023-09-07T06:23:04;18.67;73.68
9723;DHT22;4900;49.306;8.500;2023-09-07T06:25:29;18.71;73.71
9723;DHT22;4900;49.306;8.500;2023-09-07T06:27:55;18.75;73.76
9723;DHT22;4900;49.306;8.500;2023-09-07T06:30:20;18.81;73.86
9723;DHT22;4900;49.306;8.500;2023-09-07T06:32:46;18.88;73.63
9723;DHT22;4900;49.306;8.500;2023-09-07T06:35:13;18.92;73.55
9723;DHT22;4900;49.306;8.500;2023-09-07T06:37:39;18.99;73.63
9723;DHT22;4900;49.306;8.500;2023-09-07T06:40:07;19.06;73.91
9723;DHT22;4900;49.306;8.500;2023-09-07T06:42:32;19.13;74.43
9723;DHT22;4900;49.306;8.500;2023-09-07T06:44:58;19.27;74.39
9723;DHT22;4900;49.306;8.500;2023-09-07T06:47:23;19.44;74.52
9723;DHT22;4900;49.306;8.500;2023-09-07T06:49:48;19.71;74.06
9723;DHT22;4900;49.306;8.500;2023-09-07T06:52:14;20.10;72.94
9723;DHT22;4900;49.306;8.500;2023-09-07T06:54:40;20.62;71.66
9723;DHT22;4900;49.306;8.500;2023-09-07T06:57:07;21.19;69.89
9723;DHT22;4900;49.306;8.500;2023-09-07T06:59:35;21.69;68.49
9723;DHT22;4900;49.306;8.500;2023-09-07T07:02:01;22.14;66.94
9723;DHT22;4900;49.306;8.500;2023-09-07T07:04:26;22.58;65.75
9723;DHT22;4900;49.306;8.500;2023-09-07T07:06:51;22.98;64.91
9723;DHT22;4900;49.306;8.500;2023-09-07T07:09:17;23.35;63.27
9723;DHT22;4900;49.306;8.500;2023-09-07T07:11:42;23.72;62.02
9723;DHT22;4900;49.306;8.500;2023-09-07T07:14:08;24.14;61.23
9723;DHT22;4900;49.306;8.500;2023-09-07T07:16:34;24.41;59.65
9723;DHT22;4900;49.306;8.500;2023-09-07T07:18:59;24.79;58.86
9723;DHT22;4900;49.306;8.500;2023-09-07T07:21:25;25.14;58.08
9723;DHT22;4900;49.306;8.500;2023-09-07T07:23:50;25.44;57.70
9723;DHT22;4900;49.306;8.500;2023-09-07T07:26:16;25.75;56.86
9723;DHT22;4900;49.306;8.500;2023-09-07T07:28:42;26.05;56.07
9723;DHT22;4900;49.306;8.500;2023-09-07T07:31:09;26.39;55.32
9723;DHT22;4900;49.306;8.500;2023-09-07T07:33:34;26.55;54.59
9723;DHT22;4900;49.306;8.500;2023-09-07T07:36:00;26.68;54.66
9723;DHT22;4900;49.306;8.500;2023-09-07T07:38:26;26.84;53.95
9723;DHT22;4900;49.306;8.500;2023-09-07T07:40:52;27.07;52.41
9723;DHT22;4900;49.306;8.500;2023-09-07T07:43:18;27.21;51.86
9723;DHT22;4900;49.306;8.500;2023-09-07T07:45:44;27.27;50.52
9723;DHT22;4900;49.306;8.500;2023-09-07T07:48:09;27.76;50.37
9723;DHT22;4900;49.306;8.500;2023-09-07T07:50:38;27.78;49.28
9723;DHT22;4900;49.306;8.500;2023-09-07T07:53:07;28.13;48.77
9723;DHT22;4900;49.306;8.500;2023-09-07T07:55:36;28.09;47.92
9723;DHT22;4900;49.306;8.500;2023-09-07T07:58:07;28.26;46.97
9723;DHT22;4900;49.306;8.500;2023-09-07T08:00:34;28.41;47.09
9723;DHT22;4900;49.306;8.500;2023-09-07T08:03:00;28.74;46.22
9723;DHT22;4900;49.306;8.500;2023-09-07T08:05:28;28.76;45.65
9723;DHT22;4900;49.306;8.500;2023-09-07T08:07:54;28.93;46.21
9723;DHT22;4900;49.306;8.500;2023-09-07T08:10:19;29.16;45.93
9723;DHT22;4900;49.306;8.500;2023-09-07T08:12:45;29.03;45.13
9723;DHT22;4900;49.306;8.500;2023-09-07T08:15:10;29.37;44.79
9723;DHT22;4900;49.306;8.500;2023-09-07T08:17:36;29.51;44.32
9723;DHT22;4900;49.306;8.500;2023-09-07T08:20:01;29.68;43.74
9723;DHT22;4900;49.306;8.500;2023-09-07T08:22:28;29.79;43.17
9723;DHT22;4900;49.306;8.500;2023-09-07T08:24:54;30.12;43.06
9723;DHT22;4900;49.306;8.500;2023-09-07T08:27:20;30.36;42.42
9723;DHT22;4900;49.306;8.500;2023-09-07T08:29:46;30.68;42.34
9723;DHT22;4900;49.306;8.500;2023-09-07T08:32:17;30.62;41.75
9723;DHT22;4900;49.306;8.500;2023-09-07T08:34:43;31.24;41.12
9723;DHT22;4900;49.306;8.500;2023-09-07T08:37:08;31.31;41.51
9723;DHT22;4900;49.306;8.500;2023-09-07T08:39:36;31.58;41.87
9723;DHT22;4900;49.306;8.500;2023-09-07T08:42:04;31.92;40.91
9723;DHT22;4900;49.306;8.500;2023-09-07T08:44:33;31.54;40.27
9723;DHT22;4900;49.306;8.500;2023-09-07T08:47:02;32.06;39.52
9723;DHT22;4900;49.306;8.500;2023-09-07T08:49:29;32.06;39.38
9723;DHT22;4900;49.306;8.500;2023-09-07T08:52:00;32.33;39.20
9723;DHT22;4900;49.306;8.500;2023-09-07T08:54:26;32.29;39.05
9723;DHT22;4900;49.306;8.500;2023-09-07T08:56:52;32.70;38.93
9723;DHT22;4900;49.306;8.500;2023-09-07T08:59:17;32.71;39.28
9723;DHT22;4900;49.306;8.500;2023-09-07T09:01:43;32.71;39.08
9723;DHT22;4900;49.306;8.500;2023-09-07T09:04:09;33.05;39.21
9723;DHT22;4900;49.306;8.500;2023-09-07T09:06:34;32.86;38.22
9723;DHT22;4900;49.306;8.500;2023-09-07T09:08:59;33.13;37.89
9723;DHT22;4900;49.306;8.500;2023-09-07T09:11:26;33.01;37.66
9723;DHT22;4900;49.306;8.500;2023-09-07T09:13:53;33.39;37.57
9723;DHT22;4900;49.306;8.500;2023-09-07T09:16:20;33.33;37.22
9723;DHT22;4900;49.306;8.500;2023-09-07T09:18:53;33.70;36.79
9723;DHT22;4900;49.306;8.500;2023-09-07T09:21:22;33.90;37.30
9723;DHT22;4900;49.306;8.500;2023-09-07T09:23:57;33.98;36.38
9723;DHT22;4900;49.306;8.500;2023-09-07T09:26:23;34.23;36.35
9723;DHT22;4900;49.306;8.500;2023-09-07T09:28:49;34.66;36.58
9723;DHT22;4900;49.306;8.500;2023-09-07T09:31:17;34.84;36.44
9723;DHT22;4900;49.306;8.500;2023-09-07T09:33:47;34.56;36.57
9723;DHT22;4900;49.306;8.500;2023-09-07T09:36:12;34.46;36.16
9723;DHT22;4900;49.306;8.500;2023-09-07T09:38:38;34.33;36.06
9723;DHT22;4900;49.306;8.500;2023-09-07T09:41:04;34.70;35.70
9723;DHT22;4900;49.306;8.500;2023-09-07T09:43:30;34.79;35.85
9723;DHT22;4900;49.306;8.500;2023-09-07T09:45:56;35.07;35.84
9723;DHT22;4900;49.306;8.500;2023-09-07T09:48:23;35.08;35.50
9723;DHT22;4900;49.306;8.500;2023-09-07T09:50:49;35.35;34.85
9723;DHT22;4900;49.306;8.500;2023-09-07T09:53:16;35.78;35.48
9723;DHT22;4900;49.306;8.500;2023-09-07T09:55:47;35.80;35.01
9723;DHT22;4900;49.306;8.500;2023-09-07T09:58:16;35.76;34.49
9723;DHT22;4900;49.306;8.500;2023-09-07T10:00:46;35.76;33.97
9723;DHT22;4900;49.306;8.500;2023-09-07T10:05:53;36.42;34.23
9723;DHT22;4900;49.306;8.500;2023-09-07T10:08:20;36.21;33.73
9723;DHT22;4900;49.306;8.500;2023-09-07T10:10:48;36.22;33.47
9723;DHT22;4900;49.306;8.500;2023-09-07T10:13:15;36.15;34.23
9723;DHT22;4900;49.306;8.500;2023-09-07T10:15:41;36.63;33.64
9723;DHT22;4900;49.306;8.500;2023-09-07T10:18:13;36.62;33.27
9723;DHT22;4900;49.306;8.500;2023-09-07T10:21:06;36.90;33.12
9723;DHT22;4900;49.306;8.500;2023-09-07T10:23:39;36.60;32.46
9723;DHT22;4900;49.306;8.500;2023-09-07T10:26:09;36.60;32.61
9723;DHT22;4900;49.306;8.500;2023-09-07T10:28:34;36.84;32.12
9723;DHT22;4900;49.306;8.500;2023-09-07T10:31:05;37.20;31.77
9723;DHT22;4900;49.306;8.500;2023-09-07T10:33:32;36.90;31.80
9723;DHT22;4900;49.306;8.500;2023-09-07T10:35:58;37.27;32.46
9723;DHT22;4900;49.306;8.500;2023-09-07T10:38:23;37.29;31.90
9723;DHT22;4900;49.306;8.500;2023-09-07T10:40:55;37.56;31.45
9723;DHT22;4900;49.306;8.500;2023-09-07T10:43:26;37.99;31.62
9723;DHT22;4900;49.306;8.500;2023-09-07T10:45:53;37.96;31.11
9723;DHT22;4900;49.306;8.500;2023-09-07T10:48:18;38.21;30.94
9723;DHT22;4900;49.306;8.500;2023-09-07T10:50:45;38.38;31.16
9723;DHT22;4900;49.306;8.500;2023-09-07T10:53:24;37.91;30.49
9723;DHT22;4900;49.306;8.500;2023-09-07T10:55:50;37.97;30.80
9723;DHT22;4900;49.306;8.500;2023-09-07T10:58:34;38.45;30.78
9723;DHT22;4900;49.306;8.500;2023-09-07T11:01:00;38.53;30.92
9723;DHT22;4900;49.306;8.500;2023-09-07T11:03:27;38.44;30.41
9723;DHT22;4900;49.306;8.500;2023-09-07T11:08:30;38.32;29.62
9723;DHT22;4900;49.306;8.500;2023-09-07T11:10:56;38.45;29.25
9723;DHT22;4900;49.306;8.500;2023-09-07T11:13:23;38.66;29.09
9723;DHT22;4900;49.306;8.500;2023-09-07T11:15:49;38.49;29.05
9723;DHT22;4900;49.306;8.500;2023-09-07T11:18:19;38.73;29.45
9723;DHT22;4900;49.306;8.500;2023-09-07T11:20:46;38.62;29.09
9723;DHT22;4900;49.306;8.500;2023-09-07T11:23:11;38.82;28.90
9723;DHT22;4900;49.306;8.500;2023-09-07T11:25:38;39.40;28.84
9723;DHT22;4900;49.306;8.500;2023-09-07T11:28:04;39.20;29.14
9723;DHT22;4900;49.306;8.500;2023-09-07T11:30:30;39.21;29.39
9723;DHT22;4900;49.306;8.500;2023-09-07T11:33:03;39.40;28.70
9723;DHT22;4900;49.306;8.500;2023-09-07T11:35:29;39.33;28.43
9723;DHT22;4900;49.306;8.500;2023-09-07T11:37:54;39.47;28.34
9723;DHT22;4900;49.306;8.500;2023-09-07T11:40:20;39.45;28.04
9723;DHT22;4900;49.306;8.500;2023-09-07T11:42:45;39.84;28.50
9723;DHT22;4900;49.306;8.500;2023-09-07T11:45:11;39.93;28.89
9723;DHT22;4900;49.306;8.500;2023-09-07T11:47:38;40.43;29.29
9723;DHT22;4900;49.306;8.500;2023-09-07T11:50:05;40.21;29.03
9723;DHT22;4900;49.306;8.500;2023-09-07T11:52:31;40.29;28.01
9723;DHT22;4900;49.306;8.500;2023-09-07T11:54:57;39.84;27.61
9723;DHT22;4900;49.306;8.500;2023-09-07T11:57:22;40.29;27.44
9723;DHT22;4900;49.306;8.500;2023-09-07T11:59:48;40.27;28.01
9723;DHT22;4900;49.306;8.500;2023-09-07T12:02:13;40.13;27.66
9723;DHT22;4900;49.306;8.500;2023-09-07T12:04:40;40.19;27.63
9723;DHT22;4900;49.306;8.500;2023-09-07T12:07:06;40.13;27.32
9723;DHT22;4900;49.306;8.500;2023-09-07T12:09:31;40.40;26.80
9723;DHT22;4900;49.306;8.500;2023-09-07T12:11:57;40.45;26.94
9723;DHT22;4900;49.306;8.500;2023-09-07T12:14:23;40.29;26.62
9723;DHT22;4900;49.306;8.500;2023-09-07T12:16:48;40.48;27.05
9723;DHT22;4900;49.306;8.500;2023-09-07T12:19:14;40.99;27.44
9723;DHT22;4900;49.306;8.500;2023-09-07T12:21:39;41.03;27.71
9723;DHT22;4900;49.306;8.500;2023-09-07T12:24:05;41.41;27.77
9723;DHT22;4900;49.306;8.500;2023-09-07T12:26:30;41.71;27.76
9723;DHT22;4900;49.306;8.500;2023-09-07T12:28:56;41.71;27.52
9723;DHT22;4900;49.306;8.500;2023-09-07T12:31:22;41.72;27.16
9723;DHT22;4900;49.306;8.500;2023-09-07T12:33:47;41.54;26.48
9723;DHT22;4900;49.306;8.500;2023-09-07T12:36:12;41.64;26.58
9723;DHT22;4900;49.306;8.500;2023-09-07T12:38:38;41.93;26.77
9723;DHT22;4900;49.306;8.500;2023-09-07T12:41:03;41.55;26.57
9723;DHT22;4900;49.306;8.500;2023-09-07T12:43:30;41.65;26.81
9723;DHT22;4900;49.306;8.500;2023-09-07T12:45:56;41.55;26.36
9723;DHT22;4900;49.306;8.500;2023-09-07T12:48:21;41.55;26.26
9723;DHT22;4900;49.306;8.500;2023-09-07T12:50:47;41.74;26.17
9723;DHT22;4900;49.306;8.500;2023-09-07T12:53:12;41.81;26.16
9723;DHT22;4900;49.306;8.500;2023-09-07T12:55:38;41.43;25.72
9723;DHT22;4900;49.306;8.500;2023-09-07T12:58:03;41.25;25.86
9723;DHT22;4900;49.306;8.500;2023-09-07T13:00:29;41.43;25.98
9723;DHT22;4900;49.306;8.500;2023-09-07T13:02:55;41.78;26.32
9723;DHT22;4900;49.306;8.500;2023-09-07T13:05:21;41.46;26.07
9723;DHT22;4900;49.306;8.500;2023-09-07T13:07:46;41.80;26.02
9723;DHT22;4900;49.306;8.500;2023-09-07T13:10:12;41.77;26.15
9723;DHT22;4900;49.306;8.500;2023-09-07T13:12:37;41.91;26.25
9723;DHT22;4900;49.306;8.500;2023-09-07T13:15:05;42.15;25.95
9723;DHT22;4900;49.306;8.500;2023-09-07T13:17:31;42.45;26.10
9723;DHT22;4900;49.306;8.500;2023-09-07T13:19:56;42.61;26.28
9723;DHT22;4900;49.306;8.500;2023-09-07T13:22:22;42.47;26.16
9723;DHT22;4900;49.306;8.500;2023-09-07T13:24:48;42.60;25.88
9723;DHT22;4900;49.306;8.500;2023-09-07T13:27:14;42.41;25.38
9723;DHT22;4900;49.306;8.500;2023-09-07T13:29:40;42.64;25.61
9723;DHT22;4900;49.306;8.500;2023-09-07T13:32:05;42.81;25.33
9723;DHT22;4900;49.306;8.500;2023-09-07T13:34:31;42.82;25.35
9723;DHT22;4900;49.306;8.500;2023-09-07T13:36:56;42.89;25.60
9723;DHT22;4900;49.306;8.500;2023-09-07T13:39:22;42.74;25.49
9723;DHT22;4900;49.306;8.500;2023-09-07T13:41:48;42.55;24.84
9723;DHT22;4900;49.306;8.500;2023-09-07T13:44:14;42.47;24.67
9723;DHT22;4900;49.306;8.500;2023-09-07T13:46:40;42.47;24.89
9723;DHT22;4900;49.306;8.500;2023-09-07T13:49:05;42.75;25.22
9723;DHT22;4900;49.306;8.500;2023-09-07T13:51:31;42.26;24.78
9723;DHT22;4900;49.306;8.500;2023-09-07T13:54:03;42.19;24.80
9723;DHT22;4900;49.306;8.500;2023-09-07T13:56:28;42.13;24.92
9723;DHT22;4900;49.306;8.500;2023-09-07T13:58:54;42.45;25.53
9723;DHT22;4900;49.306;8.500;2023-09-07T14:01:19;42.29;25.40
9723;DHT22;4900;49.306;8.500;2023-09-07T14:03:44;42.33;25.34
9723;DHT22;4900;49.306;8.500;2023-09-07T14:06:10;42.50;25.92
9723;DHT22;4900;49.306;8.500;2023-09-07T14:08:35;42.33;24.91
9723;DHT22;4900;49.306;8.500;2023-09-07T14:11:01;42.40;25.16
9723;DHT22;4900;49.306;8.500;2023-09-07T14:13:26;42.79;25.86
9723;DHT22;4900;49.306;8.500;2023-09-07T14:15:52;42.62;25.00
9723;DHT22;4900;49.306;8.500;2023-09-07T14:18:17;42.68;25.31
9723;DHT22;4900;49.306;8.500;2023-09-07T14:20:43;42.82;24.92
9723;DHT22;4900;49.306;8.500;2023-09-07T14:23:08;43.13;25.92
9723;DHT22;4900;49.306;8.500;2023-09-07T14:25:34;42.88;25.02
9723;DHT22;4900;49.306;8.500;2023-09-07T14:28:00;42.71;24.54
9723;DHT22;4900;49.306;8.500;2023-09-07T14:30:25;42.71;24.35
9723;DHT22;4900;49.306;8.500;2023-09-07T14:32:51;42.85;24.97
9723;DHT22;4900;49.306;8.500;2023-09-07T14:35:16;42.74;24.55
9723;DHT22;4900;49.306;8.500;2023-09-07T14:37:42;42.37;24.09
9723;DHT22;4900;49.306;8.500;2023-09-07T14:40:07;42.67;24.04
9723;DHT22;4900;49.306;8.500;2023-09-07T14:42:34;42.88;24.51
9723;DHT22;4900;49.306;8.500;2023-09-07T14:44:59;42.82;25.00
9723;DHT22;4900;49.306;8.500;2023-09-07T14:47:30;43.16;24.94
9723;DHT22;4900;49.306;8.500;2023-09-07T14:49:56;43.22;25.32
9723;DHT22;4900;49.306;8.500;2023-09-07T14:52:22;42.92;24.91
9723;DHT22;4900;49.306;8.500;2023-09-07T14:54:50;42.92;24.41
9723;DHT22;4900;49.306;8.500;2023-09-07T14:57:15;42.65;24.23
9723;DHT22;4900;49.306;8.500;2023-09-07T14:59:40;42.78;24.47
9723;DHT22;4900;49.306;8.500;2023-09-07T15:02:06;42.74;24.74
9723;DHT22;4900;49.306;8.500;2023-09-07T15:04:32;42.72;24.71
9723;DHT22;4900;49.306;8.500;2023-09-07T15:06:58;42.65;24.78
9723;DHT22;4900;49.306;8.500;2023-09-07T15:09:23;42.90;25.03
9723;DHT22;4900;49.306;8.500;2023-09-07T15:11:48;42.75;25.44
9723;DHT22;4900;49.306;8.500;2023-09-07T15:14:14;42.62;25.10
9723;DHT22;4900;49.306;8.500;2023-09-07T15:16:39;42.50;24.66
9723;DHT22;4900;49.306;8.500;2023-09-07T15:19:05;42.76;25.08
9723;DHT22;4900;49.306;8.500;2023-09-07T15:21:30;42.72;25.22
9723;DHT22;4900;49.306;8.500;2023-09-07T15:23:56;42.55;24.68
9723;DHT22;4900;49.306;8.500;2023-09-07T15:26:22;42.57;24.74
9723;DHT22;4900;49.306;8.500;2023-09-07T15:28:49;42.55;25.11
9723;DHT22;4900;49.306;8.500;2023-09-07T15:31:14;42.58;25.08
9723;DHT22;4900;49.306;8.500;2023-09-07T15:33:39;42.45;25.29
9723;DHT22;4900;49.306;8.500;2023-09-07T15:36:05;42.25;24.70
9723;DHT22;4900;49.306;8.500;2023-09-07T15:38:31;42.30;24.68
9723;DHT22;4900;49.306;8.500;2023-09-07T15:40:57;42.00;24.79
9723;DHT22;4900;49.306;8.500;2023-09-07T15:43:24;42.00;24.98
9723;DHT22;4900;49.306;8.500;2023-09-07T15:45:49;41.58;25.49
9723;DHT22;4900;49.306;8.500;2023-09-07T15:48:15;41.38;25.11
9723;DHT22;4900;49.306;8.500;2023-09-07T15:50:40;41.17;25.54
9723;DHT22;4900;49.306;8.500;2023-09-07T15:53:07;41.09;25.53
9723;DHT22;4900;49.306;8.500;2023-09-07T15:55:33;40.82;26.60
9723;DHT22;4900;49.306;8.500;2023-09-07T15:57:58;40.30;26.58
9723;DHT22;4900;49.306;8.500;2023-09-07T16:00:24;39.85;26.96